x

Diamond Shoals (41025) Wave Buoy

12:50 - Sat 6th Feb 2016 All times are EST. -5 hours from GMT.

  • Sig Wave height 6.9ft
  • Swell Direction
  • Peak Period 11s
  • Average Period 7s
  • Wind
    16mph, 25mph gusts
  • Sea Temp 73°f
  • Luft Temp 45°f
  • Sea Pressure 1029.1mb
  • Diamond Shoals
  • Diamond Shoals

More Historic Weather Station data

Upgrade to MSW Pro to gain access to the past 30 days of data for over 8000 Wavebouys and Weather Stations around the globe.

Join Pro

Comparision Forecast

View Surf forecast
   
Sa 02/06 12:50 7ft 11s 7s 16 25 mph 1029.1mb 73f 45f
Fr 02/05 11:50 7.5ft 11s 7s 18 25 mph 1028.9mb 73f -
10:50 7ft 10s 7s 20 27 mph 1028.8mb 73f -
9:50 7ft 11s 7s 22 31 mph 1028.1mb 72f -
8:50 7ft 10s 6s 22 29 mph 1028.2mb 71f -
7:50 7ft 11s 6s 25 34 mph 1027.3mb 71f -
6:50 7.5ft 11s 6s 27 34 mph 1026.6mb 70f -
5:50 7ft 10s 6s 25 31 mph 1025.7mb 70f -
4:50 7.5ft 10s 6s 25 31 mph 1025.1mb 70f -
3:50 8ft 10s 6s 25 29 mph 1024.8mb 69f -
2:50 8ft 9s 6s 29 36 mph 1023.8mb 69f -
1:50 8ft 9s 6s 29 38 mph 1023.4mb 69f -
12:50 8ft 7s 6s 31 38 mph 1022.8mb 69f -
11:50 8.5ft 8s 6s 31 40 mph 1022.5mb 69f -
10:50 9ft 6s 6s 34 43 mph 1021.8mb 69f -
9:50 9ft 7s 6s 34 43 mph 1020.4mb 69f -
8:50 8.5ft 7s 6s 36 45 mph 1017.6mb 70f -
7:50 9ft 7s 6s 31 40 mph 1015.8mb 70f -
6:50 10ft 8s 6s 36 45 mph 1013.1mb 70f -
5:50 10.5ft 8s 6s 34 43 mph 1010.5mb 70f -
4:50 9ft 8s 6s 29 36 mph 1008.3mb 70f -
3:50 9ft 7s 6s 38 49 mph 1007mb 71f 71f
2:50 8ft 7s 6s 34 40 mph 1009.6mb 71f 69f
1:50 7ft 7s 5s 29 38 mph 1010.5mb 71f 71f
12:50 5ft 7s 5s 27 36 mph 1011.6mb 70f 72f
Do 02/04 11:50 4.5ft 7s 5s 9 18 mph 1013.8mb 69f 68f
10:50 5ft 7s 5s 9 11 mph 1014.5mb 69f 68f
9:50 6ft 8s 5s 13 16 mph 1015.3mb 69f 67f
8:50 6ft 7s 5s 20 27 mph 1016mb 69f 67f
7:50 6ft 7s 5s 20 22 mph 1015.8mb 69f 66f
6:50 8ft 7s 6s 20 25 mph 1016mb 69f 68f
5:50 7ft 8s 6s 18 25 mph 1015.9mb 70f 69f
4:50 7ft 8s 6s 20 22 mph 1016.1mb 70f 69f
3:50 6ft 8s 6s 13 16 mph 1016.1mb 71f 67f
2:50 7ft 7s 5s 18 20 mph 1015.9mb 71f 67f
1:50 6ft 7s 5s 20 25 mph 1015.6mb 71f 67f
12:50 6ft 8s 6s 16 20 mph 1016.5mb 71f 67f
11:50 5.5ft 7s 5s 13 16 mph 1017.5mb 72f 69f
10:50 5ft 8s 5s 16 18 mph 1018.1mb 71f 68f
9:50 5.5ft 8s 6s 11 16 mph 1018.9mb 71f 68f
8:50 6ft 8s 6s 7 9 mph 1018.8mb 71f 68f
7:50 5.5ft 7s 5s 9 11 mph 1018.2mb 71f 67f
6:50 6ft 8s 6s 13 16 mph 1018mb 71f 69f
5:50 5.5ft 7s 5s 16 18 mph 1017.4mb 71f 69f
4:50 7ft 7s 5s 20 25 mph 1017.4mb 72f 68f
3:50 7ft 7s 6s 18 20 mph 1017.6mb 72f 67f
2:50 8ft 7s 5s 29 34 mph 1016.4mb 72f 73f
1:50 7.5ft 7s 5s 31 38 mph 1016.3mb 72f 73f
12:50 7ft 7s 5s 29 36 mph 1016.6mb 71f 73f
Mi 02/03 11:50 7.5ft 7s 5s 27 36 mph 1017.1mb 71f 73f
10:50 7ft 7s 5s 27 31 mph 1017.6mb 70f 73f
9:50 7.5ft 7s 5s 27 34 mph 1017.7mb 71f 73f
8:50 8ft 7s 5s 29 36 mph 1017.9mb 71f 73f
7:50 8ft 6s 5s 29 34 mph 1017.9mb 71f 73f
6:50 8ft 6s 5s 29 36 mph 1017.7mb 71f 73f
5:50 8ft 6s 5s 29 36 mph 1017.4mb 72f 73f
4:50 8ft 6s 5s 29 36 mph 1017.5mb 72f 73f
3:50 7ft 6s 5s 29 38 mph 1017.5mb 72f 73f
2:50 6.5ft 6s 5s 29 36 mph 1017.5mb 73f 73f
1:50 6.5ft 6s 5s 29 36 mph 1018.4mb 73f 73f
12:50 6ft 5s 5s 29 36 mph 1018.8mb 72f 73f
11:50 6ft 5s 5s 29 34 mph 1020mb 72f 73f
10:50 5ft 8s 5s 29 34 mph 1020.9mb 72f 73f
9:50 5.5ft 6s 5s 27 31 mph 1021.8mb 72f 73f
8:50 5.5ft 5s 5s 27 34 mph 1021.5mb 72f 72f
7:50 5ft 8s 5s 22 27 mph 1022.1mb 72f 72f
6:50 5ft 5s 5s 25 29 mph 1021.4mb 72f 72f
5:50 5ft 7s 5s 25 29 mph 1021mb 73f 71f
4:50 5ft 5s 5s 22 27 mph 1021mb 73f 71f
3:50 4.5ft 7s 5s 22 27 mph 1020.8mb 73f 71f
2:50 5ft 8s 5s 20 25 mph 1021.7mb 73f 71f
1:50 4.5ft 8s 5s 20 25 mph 1021.8mb 73f 71f
12:50 4.5ft 8s 5s 18 22 mph 1022.6mb 73f 70f
Di 02/02 11:50 4.5ft 8s 5s 18 22 mph 1023.3mb 73f 69f
10:50 4.5ft 7s 5s 16 20 mph 1024.2mb 73f 68f
9:50 5ft 8s 5s 18 20 mph 1024.2mb 73f 68f
8:50 4.5ft 7s 5s 18 25 mph 1024.1mb 72f 68f
7:50 4.5ft 7s 5s 20 25 mph 1024.1mb 71f 65f
6:50 4.5ft 5s 5s 20 25 mph 1024.3mb 70f 64f
5:50 4.5ft 5s 5s 20 25 mph 1023.8mb 69f 64f
4:50 4.5ft 5s 5s 20 25 mph 1023.4mb 70f 63f
3:50 4.5ft 5s 5s 20 25 mph 1023.1mb 70f 63f
2:50 4.5ft 5s 5s 22 25 mph 1022.4mb 70f 63f
1:50 4.5ft 6s 5s 22 25 mph 1022.4mb 70f 60f
12:50 4.5ft 6s 5s 22 29 mph 1022.5mb 70f 59f
11:50 4.5ft 5s 5s 18 22 mph 1023mb 70f 63f
10:50 4ft 5s 5s 20 22 mph 1023.3mb 70f 63f
9:50 4ft 5s 5s 20 22 mph 1022.9mb 70f 62f
8:50 4.5ft 5s 5s 22 27 mph 1022mb 70f 59f
7:50 3.5ft 5s 4s 22 27 mph 1020.8mb 70f 59f